Santa Magdalena, Argentina
Current Conditions -  °F | °C
As of 2:00 AM on Sunday 28 Dec 2014 (Local Time) from SAOC Reporting Station
Clear Clear  
Wind Chill: 20°   Ceiling: Unl
Heat Index: 20°   Visibility: 6mi
Dew Point: 17°   Wind: 9mph
Humidity: 83%   Direction: 340°NNW
Pressure: 29.83"   Gusts: NA
Location:  34.5°S, 63.93°W
Report Text: SAOC 280500Z 34008KT CAVOK 20/17 Q1010
Loading
Personal Weather Stations






























Interactive Weather Map New forecast layout! Learn more

10-Day Weather Forecast

Advertisements
Track Severe Weather on mobile